Terminal Aerodrome Forecast
Issued by NWS

Home | Current Version | Previous Version | Text Only | Print | Product List | Glossary Off
Versions: 1 2 3 4 5 6 7 8 9 10 11 12 13 14 15

000
FTUS43 KPAH 011151
TAFCGI
TAF
KCGI 011151Z 0112/0212 13008KT P6SM OVC060
      TEMPO 0112/0114 6SM -RA BR SCT040 OVC060
     FM011400 13003KT 4SM -DZ BR OVC010
     FM011700 VRB03KT 3SM -DZ BR OVC008
     FM012000 31004KT P6SM OVC015
     FM020100 36006KT P6SM SCT150=

USA.gov is the U.S. government's official web portal to all federal, state and local government web resources and services.